sensor_id;sensor_type;location;lat;lon;timestamp;P1;durP1;ratioP1;P2;durP2;ratioP2
62535;SDS011;63050;47.514;18.920;2022-11-25T00:00:29;21.40;;;14.10;;
62535;SDS011;63050;47.514;18.920;2022-11-25T00:05:30;20.70;;;14.60;;
62535;SDS011;63050;47.514;18.920;2022-11-25T00:10:30;22.00;;;13.60;;
62535;SDS011;63050;47.514;18.920;2022-11-25T00:15:32;22.40;;;15.10;;
62535;SDS011;63050;47.514;18.920;2022-11-25T00:20:33;23.30;;;14.70;;
62535;SDS011;63050;47.514;18.920;2022-11-25T00:25:36;23.10;;;14.70;;
62535;SDS011;63050;47.514;18.920;2022-11-25T00:30:37;24.00;;;15.50;;
62535;SDS011;63050;47.514;18.920;2022-11-25T00:35:38;23.30;;;15.60;;
62535;SDS011;63050;47.514;18.920;2022-11-25T00:40:39;21.60;;;14.90;;
62535;SDS011;63050;47.514;18.920;2022-11-25T00:45:39;23.00;;;14.20;;
62535;SDS011;63050;47.514;18.920;2022-11-25T00:50:42;21.30;;;14.80;;
62535;SDS011;63050;47.514;18.920;2022-11-25T00:55:42;22.40;;;14.70;;
62535;SDS011;63050;47.514;18.920;2022-11-25T01:01:02;25.40;;;15.60;;
62535;SDS011;63050;47.514;18.920;2022-11-25T01:06:04;25.00;;;15.50;;
62535;SDS011;63050;47.514;18.920;2022-11-25T01:11:14;24.70;;;14.40;;
62535;SDS011;63050;47.514;18.920;2022-11-25T01:16:17;22.70;;;14.30;;
62535;SDS011;63050;47.514;18.920;2022-11-25T01:21:21;21.00;;;14.40;;
62535;SDS011;63050;47.514;18.920;2022-11-25T01:26:23;20.90;;;14.30;;
62535;SDS011;63050;47.514;18.920;2022-11-25T01:31:25;21.60;;;14.50;;
62535;SDS011;63050;47.514;18.920;2022-11-25T01:36:28;21.30;;;13.70;;
62535;SDS011;63050;47.514;18.920;2022-11-25T01:41:30;21.70;;;15.40;;
62535;SDS011;63050;47.514;18.920;2022-11-25T01:51:49;22.60;;;15.40;;
62535;SDS011;63050;47.514;18.920;2022-11-25T01:56:58;23.40;;;15.30;;
62535;SDS011;63050;47.514;18.920;2022-11-25T02:02:01;22.50;;;15.40;;
62535;SDS011;63050;47.514;18.920;2022-11-25T02:07:04;25.30;;;15.00;;
62535;SDS011;63050;47.514;18.920;2022-11-25T02:12:08;25.50;;;14.60;;
62535;SDS011;63050;47.514;18.920;2022-11-25T02:17:09;23.60;;;14.70;;
62535;SDS011;63050;47.514;18.920;2022-11-25T02:22:11;22.30;;;15.60;;
62535;SDS011;63050;47.514;18.920;2022-11-25T02:27:17;23.10;;;15.70;;
62535;SDS011;63050;47.514;18.920;2022-11-25T02:32:22;25.70;;;17.10;;
62535;SDS011;63050;47.514;18.920;2022-11-25T02:37:23;30.80;;;17.70;;
62535;SDS011;63050;47.514;18.920;2022-11-25T02:42:24;23.70;;;15.40;;
62535;SDS011;63050;47.514;18.920;2022-11-25T02:47:26;25.90;;;15.60;;
62535;SDS011;63050;47.514;18.920;2022-11-25T02:52:27;20.80;;;13.20;;
62535;SDS011;63050;47.514;18.920;2022-11-25T02:57:28;22.10;;;15.40;;
62535;SDS011;63050;47.514;18.920;2022-11-25T03:02:29;27.10;;;16.00;;
62535;SDS011;63050;47.514;18.920;2022-11-25T03:07:29;24.60;;;14.10;;
62535;SDS011;63050;47.514;18.920;2022-11-25T03:12:31;22.50;;;13.30;;
62535;SDS011;63050;47.514;18.920;2022-11-25T03:17:32;26.30;;;13.50;;
62535;SDS011;63050;47.514;18.920;2022-11-25T03:22:33;24.00;;;13.10;;
62535;SDS011;63050;47.514;18.920;2022-11-25T03:27:37;21.10;;;13.20;;
62535;SDS011;63050;47.514;18.920;2022-11-25T03:32:39;23.80;;;13.30;;
62535;SDS011;63050;47.514;18.920;2022-11-25T03:37:40;23.10;;;13.90;;
62535;SDS011;63050;47.514;18.920;2022-11-25T03:42:42;20.20;;;12.90;;
62535;SDS011;63050;47.514;18.920;2022-11-25T03:47:43;25.10;;;14.60;;
62535;SDS011;63050;47.514;18.920;2022-11-25T03:52:44;21.80;;;14.00;;
62535;SDS011;63050;47.514;18.920;2022-11-25T03:57:46;28.10;;;14.10;;
62535;SDS011;63050;47.514;18.920;2022-11-25T04:02:47;21.00;;;13.00;;
62535;SDS011;63050;47.514;18.920;2022-11-25T04:07:51;24.20;;;15.40;;
62535;SDS011;63050;47.514;18.920;2022-11-25T04:12:52;21.30;;;13.60;;
62535;SDS011;63050;47.514;18.920;2022-11-25T04:17:56;24.30;;;12.80;;
62535;SDS011;63050;47.514;18.920;2022-11-25T04:22:58;23.40;;;13.90;;
62535;SDS011;63050;47.514;18.920;2022-11-25T04:27:59;25.20;;;15.60;;
62535;SDS011;63050;47.514;18.920;2022-11-25T04:33:04;25.10;;;14.60;;
62535;SDS011;63050;47.514;18.920;2022-11-25T04:38:06;27.10;;;16.50;;
62535;SDS011;63050;47.514;18.920;2022-11-25T04:43:08;28.40;;;16.10;;
62535;SDS011;63050;47.514;18.920;2022-11-25T04:48:13;22.60;;;13.70;;
62535;SDS011;63050;47.514;18.920;2022-11-25T04:53:14;29.80;;;16.20;;
62535;SDS011;63050;47.514;18.920;2022-11-25T04:58:14;32.60;;;16.30;;
62535;SDS011;63050;47.514;18.920;2022-11-25T05:03:39;24.10;;;13.90;;
62535;SDS011;63050;47.514;18.920;2022-11-25T05:08:40;23.20;;;12.80;;
62535;SDS011;63050;47.514;18.920;2022-11-25T05:13:41;21.80;;;12.40;;
62535;SDS011;63050;47.514;18.920;2022-11-25T05:18:42;24.80;;;12.70;;
62535;SDS011;63050;47.514;18.920;2022-11-25T05:23:43;21.20;;;13.40;;
62535;SDS011;63050;47.514;18.920;2022-11-25T05:28:44;20.60;;;13.60;;
62535;SDS011;63050;47.514;18.920;2022-11-25T05:33:45;22.00;;;13.00;;
62535;SDS011;63050;47.514;18.920;2022-11-25T05:38:48;27.90;;;14.30;;
62535;SDS011;63050;47.514;18.920;2022-11-25T05:43:54;21.40;;;13.10;;
62535;SDS011;63050;47.514;18.920;2022-11-25T05:48:56;18.70;;;12.00;;
62535;SDS011;63050;47.514;18.920;2022-11-25T05:53:57;23.10;;;12.40;;
62535;SDS011;63050;47.514;18.920;2022-11-25T05:59:02;25.50;;;13.10;;
62535;SDS011;63050;47.514;18.920;2022-11-25T06:04:30;22.60;;;13.80;;
62535;SDS011;63050;47.514;18.920;2022-11-25T06:09:31;24.20;;;13.80;;
62535;SDS011;63050;47.514;18.920;2022-11-25T06:14:32;22.20;;;12.80;;
62535;SDS011;63050;47.514;18.920;2022-11-25T06:19:33;21.90;;;12.80;;
62535;SDS011;63050;47.514;18.920;2022-11-25T06:24:34;18.20;;;11.50;;
62535;SDS011;63050;47.514;18.920;2022-11-25T06:29:38;22.90;;;12.30;;
62535;SDS011;63050;47.514;18.920;2022-11-25T06:34:39;24.60;;;12.90;;
62535;SDS011;63050;47.514;18.920;2022-11-25T06:44:46;18.20;;;11.30;;
62535;SDS011;63050;47.514;18.920;2022-11-25T06:49:47;20.00;;;12.30;;
62535;SDS011;63050;47.514;18.920;2022-11-25T06:54:49;20.40;;;12.30;;
62535;SDS011;63050;47.514;18.920;2022-11-25T06:59:51;19.00;;;11.90;;
62535;SDS011;63050;47.514;18.920;2022-11-25T07:04:51;20.20;;;12.20;;
62535;SDS011;63050;47.514;18.920;2022-11-25T07:09:53;23.20;;;14.00;;
62535;SDS011;63050;47.514;18.920;2022-11-25T07:14:53;21.00;;;13.30;;
62535;SDS011;63050;47.514;18.920;2022-11-25T07:19:54;23.10;;;13.10;;
62535;SDS011;63050;47.514;18.920;2022-11-25T07:24:55;21.50;;;12.70;;
62535;SDS011;63050;47.514;18.920;2022-11-25T07:29:56;22.50;;;13.80;;
62535;SDS011;63050;47.514;18.920;2022-11-25T07:34:56;26.80;;;15.50;;
62535;SDS011;63050;47.514;18.920;2022-11-25T07:39:57;28.60;;;14.60;;
62535;SDS011;63050;47.514;18.920;2022-11-25T07:44:58;26.30;;;16.10;;
62535;SDS011;63050;47.514;18.920;2022-11-25T07:50:13;29.60;;;16.70;;
62535;SDS011;63050;47.514;18.920;2022-11-25T07:55:14;30.10;;;18.30;;
62535;SDS011;63050;47.514;18.920;2022-11-25T08:00:15;36.60;;;21.60;;
62535;SDS011;63050;47.514;18.920;2022-11-25T08:05:16;39.50;;;23.80;;
62535;SDS011;63050;47.514;18.920;2022-11-25T08:10:18;40.50;;;26.80;;
62535;SDS011;63050;47.514;18.920;2022-11-25T08:15:18;50.40;;;31.50;;
62535;SDS011;63050;47.514;18.920;2022-11-25T08:20:19;44.00;;;28.70;;
62535;SDS011;63050;47.514;18.920;2022-11-25T08:25:20;50.50;;;30.10;;
62535;SDS011;63050;47.514;18.920;2022-11-25T08:30:21;38.50;;;25.70;;
62535;SDS011;63050;47.514;18.920;2022-11-25T08:35:25;37.50;;;24.80;;
62535;SDS011;63050;47.514;18.920;2022-11-25T08:40:26;31.20;;;18.80;;
62535;SDS011;63050;47.514;18.920;2022-11-25T08:45:27;30.80;;;18.20;;
62535;SDS011;63050;47.514;18.920;2022-11-25T08:50:28;24.90;;;16.80;;
62535;SDS011;63050;47.514;18.920;2022-11-25T08:55:29;24.60;;;15.90;;
62535;SDS011;63050;47.514;18.920;2022-11-25T09:00:32;14.30;;;9.40;;
62535;SDS011;63050;47.514;18.920;2022-11-25T09:05:33;19.40;;;12.10;;
62535;SDS011;63050;47.514;18.920;2022-11-25T09:10:36;7.90;;;5.30;;
62535;SDS011;63050;47.514;18.920;2022-11-25T09:15:37;7.90;;;5.40;;
62535;SDS011;63050;47.514;18.920;2022-11-25T09:20:39;7.30;;;4.90;;
62535;SDS011;63050;47.514;18.920;2022-11-25T09:25:40;6.80;;;4.60;;
62535;SDS011;63050;47.514;18.920;2022-11-25T09:30:40;7.20;;;4.80;;
62535;SDS011;63050;47.514;18.920;2022-11-25T09:35:41;6.80;;;4.80;;
62535;SDS011;63050;47.514;18.920;2022-11-25T09:51:19;5.80;;;3.90;;
62535;SDS011;63050;47.514;18.920;2022-11-25T10:02:11;8.50;;;5.40;;
62535;SDS011;63050;47.514;18.920;2022-11-25T10:07:21;9.30;;;6.50;;
62535;SDS011;63050;47.514;18.920;2022-11-25T10:12:29;10.10;;;5.90;;
62535;SDS011;63050;47.514;18.920;2022-11-25T10:17:42;8.20;;;5.60;;
62535;SDS011;63050;47.514;18.920;2022-11-25T10:22:46;9.40;;;5.00;;
62535;SDS011;63050;47.514;18.920;2022-11-25T10:28:00;5.90;;;3.90;;
62535;SDS011;63050;47.514;18.920;2022-11-25T10:33:04;7.00;;;4.80;;
62535;SDS011;63050;47.514;18.920;2022-11-25T10:38:09;9.50;;;6.40;;
62535;SDS011;63050;47.514;18.920;2022-11-25T10:43:12;9.80;;;6.10;;
62535;SDS011;63050;47.514;18.920;2022-11-25T10:48:19;7.50;;;5.60;;
62535;SDS011;63050;47.514;18.920;2022-11-25T10:53:25;6.80;;;4.70;;
62535;SDS011;63050;47.514;18.920;2022-11-25T10:58:33;11.20;;;6.80;;
62535;SDS011;63050;47.514;18.920;2022-11-25T11:03:35;12.40;;;6.90;;
62535;SDS011;63050;47.514;18.920;2022-11-25T11:08:37;9.00;;;5.50;;
62535;SDS011;63050;47.514;18.920;2022-11-25T11:13:39;11.00;;;6.20;;
62535;SDS011;63050;47.514;18.920;2022-11-25T11:18:40;11.80;;;6.10;;
62535;SDS011;63050;47.514;18.920;2022-11-25T11:23:48;7.10;;;5.00;;
62535;SDS011;63050;47.514;18.920;2022-11-25T11:29:00;10.60;;;5.90;;
62535;SDS011;63050;47.514;18.920;2022-11-25T12:00:43;12.30;;;7.60;;
62535;SDS011;63050;47.514;18.920;2022-11-25T12:05:47;13.40;;;7.70;;
62535;SDS011;63050;47.514;18.920;2022-11-25T12:10:55;13.20;;;8.10;;
62535;SDS011;63050;47.514;18.920;2022-11-25T12:21:19;11.10;;;7.40;;
62535;SDS011;63050;47.514;18.920;2022-11-25T12:26:46;9.00;;;6.80;;
62535;SDS011;63050;47.514;18.920;2022-11-25T12:31:56;9.00;;;7.10;;
62535;SDS011;63050;47.514;18.920;2022-11-25T12:37:04;8.70;;;5.90;;
62535;SDS011;63050;47.514;18.920;2022-11-25T12:42:15;8.90;;;6.40;;
62535;SDS011;63050;47.514;18.920;2022-11-25T12:47:22;8.60;;;5.70;;
62535;SDS011;63050;47.514;18.920;2022-11-25T13:03:29;10.80;;;7.60;;
62535;SDS011;63050;47.514;18.920;2022-11-25T13:14:18;9.20;;;5.40;;
62535;SDS011;63050;47.514;18.920;2022-11-25T13:19:27;8.00;;;5.30;;
62535;SDS011;63050;47.514;18.920;2022-11-25T13:24:37;10.10;;;4.40;;
62535;SDS011;63050;47.514;18.920;2022-11-25T13:34:43;8.40;;;4.90;;
62535;SDS011;63050;47.514;18.920;2022-11-25T13:39:44;8.40;;;4.10;;
62535;SDS011;63050;47.514;18.920;2022-11-25T13:44:52;10.60;;;4.70;;
62535;SDS011;63050;47.514;18.920;2022-11-25T13:49:55;9.70;;;5.40;;
62535;SDS011;63050;47.514;18.920;2022-11-25T13:54:57;6.80;;;4.30;;
62535;SDS011;63050;47.514;18.920;2022-11-25T14:00:04;8.90;;;4.90;;
62535;SDS011;63050;47.514;18.920;2022-11-25T14:05:33;8.20;;;5.10;;
62535;SDS011;63050;47.514;18.920;2022-11-25T14:10:44;8.30;;;6.10;;
62535;SDS011;63050;47.514;18.920;2022-11-25T14:21:57;8.10;;;5.40;;
62535;SDS011;63050;47.514;18.920;2022-11-25T14:27:14;8.80;;;6.00;;
62535;SDS011;63050;47.514;18.920;2022-11-25T14:37:38;10.70;;;7.00;;
62535;SDS011;63050;47.514;18.920;2022-11-25T14:42:53;12.70;;;7.30;;
62535;SDS011;63050;47.514;18.920;2022-11-25T14:48:12;16.20;;;9.50;;
62535;SDS011;63050;47.514;18.920;2022-11-25T14:53:13;22.60;;;9.90;;
62535;SDS011;63050;47.514;18.920;2022-11-25T14:58:14;17.80;;;8.70;;
62535;SDS011;63050;47.514;18.920;2022-11-25T15:03:17;19.20;;;8.60;;
62535;SDS011;63050;47.514;18.920;2022-11-25T15:08:18;21.30;;;8.70;;
62535;SDS011;63050;47.514;18.920;2022-11-25T15:13:38;19.10;;;7.60;;
62535;SDS011;63050;47.514;18.920;2022-11-25T15:18:51;13.80;;;6.80;;
62535;SDS011;63050;47.514;18.920;2022-11-25T15:23:53;21.30;;;7.20;;
62535;SDS011;63050;47.514;18.920;2022-11-25T15:28:58;16.00;;;7.00;;
62535;SDS011;63050;47.514;18.920;2022-11-25T15:34:05;12.00;;;7.10;;
62535;SDS011;63050;47.514;18.920;2022-11-25T15:49:23;10.50;;;6.40;;
62535;SDS011;63050;47.514;18.920;2022-11-25T15:54:27;12.00;;;7.10;;
62535;SDS011;63050;47.514;18.920;2022-11-25T15:59:47;16.30;;;7.00;;
62535;SDS011;63050;47.514;18.920;2022-11-25T16:04:49;18.60;;;7.30;;
62535;SDS011;63050;47.514;18.920;2022-11-25T16:09:50;16.00;;;7.70;;
62535;SDS011;63050;47.514;18.920;2022-11-25T16:14:51;13.10;;;7.40;;
62535;SDS011;63050;47.514;18.920;2022-11-25T16:19:52;12.50;;;6.70;;
62535;SDS011;63050;47.514;18.920;2022-11-25T16:24:52;9.60;;;6.00;;
62535;SDS011;63050;47.514;18.920;2022-11-25T16:30:06;11.70;;;6.20;;
62535;SDS011;63050;47.514;18.920;2022-11-25T16:35:17;12.80;;;6.70;;
62535;SDS011;63050;47.514;18.920;2022-11-25T16:40:21;21.20;;;8.60;;
62535;SDS011;63050;47.514;18.920;2022-11-25T16:45:24;17.20;;;9.40;;
62535;SDS011;63050;47.514;18.920;2022-11-25T16:50:26;16.40;;;8.60;;
62535;SDS011;63050;47.514;18.920;2022-11-25T16:55:26;15.60;;;8.50;;
62535;SDS011;63050;47.514;18.920;2022-11-25T17:00:27;14.00;;;9.20;;
62535;SDS011;63050;47.514;18.920;2022-11-25T17:05:28;18.90;;;11.20;;
62535;SDS011;63050;47.514;18.920;2022-11-25T17:10:30;17.90;;;10.80;;
62535;SDS011;63050;47.514;18.920;2022-11-25T17:15:32;15.20;;;7.60;;
62535;SDS011;63050;47.514;18.920;2022-11-25T17:20:34;13.80;;;8.60;;
62535;SDS011;63050;47.514;18.920;2022-11-25T17:25:35;14.90;;;8.60;;
62535;SDS011;63050;47.514;18.920;2022-11-25T17:30:36;16.10;;;9.60;;
62535;SDS011;63050;47.514;18.920;2022-11-25T17:35:37;14.70;;;8.70;;
62535;SDS011;63050;47.514;18.920;2022-11-25T17:40:39;17.20;;;9.90;;
62535;SDS011;63050;47.514;18.920;2022-11-25T17:45:42;16.10;;;9.10;;
62535;SDS011;63050;47.514;18.920;2022-11-25T17:50:43;15.70;;;8.50;;
62535;SDS011;63050;47.514;18.920;2022-11-25T17:55:46;24.60;;;10.70;;
62535;SDS011;63050;47.514;18.920;2022-11-25T18:00:47;20.10;;;9.50;;
62535;SDS011;63050;47.514;18.920;2022-11-25T18:05:48;17.30;;;8.90;;
62535;SDS011;63050;47.514;18.920;2022-11-25T18:10:49;15.90;;;9.60;;
62535;SDS011;63050;47.514;18.920;2022-11-25T18:15:50;12.90;;;9.20;;
62535;SDS011;63050;47.514;18.920;2022-11-25T18:20:51;17.10;;;9.40;;
62535;SDS011;63050;47.514;18.920;2022-11-25T18:25:53;22.20;;;9.70;;
62535;SDS011;63050;47.514;18.920;2022-11-25T18:30:55;19.30;;;9.40;;
62535;SDS011;63050;47.514;18.920;2022-11-25T18:35:59;16.00;;;9.80;;
62535;SDS011;63050;47.514;18.920;2022-11-25T18:40:59;14.60;;;9.50;;
62535;SDS011;63050;47.514;18.920;2022-11-25T18:46:00;13.30;;;8.70;;
62535;SDS011;63050;47.514;18.920;2022-11-25T18:51:01;13.00;;;8.70;;
62535;SDS011;63050;47.514;18.920;2022-11-25T18:56:02;11.40;;;8.00;;
62535;SDS011;63050;47.514;18.920;2022-11-25T19:01:03;14.40;;;9.40;;
62535;SDS011;63050;47.514;18.920;2022-11-25T19:06:08;14.10;;;9.40;;
62535;SDS011;63050;47.514;18.920;2022-11-25T19:11:18;14.50;;;7.80;;
62535;SDS011;63050;47.514;18.920;2022-11-25T19:16:31;13.00;;;8.00;;
62535;SDS011;63050;47.514;18.920;2022-11-25T19:21:32;13.10;;;8.60;;
62535;SDS011;63050;47.514;18.920;2022-11-25T19:26:35;15.50;;;8.30;;
62535;SDS011;63050;47.514;18.920;2022-11-25T19:31:41;15.80;;;9.70;;
62535;SDS011;63050;47.514;18.920;2022-11-25T19:36:42;14.80;;;10.10;;
62535;SDS011;63050;47.514;18.920;2022-11-25T19:41:42;12.00;;;7.80;;
62535;SDS011;63050;47.514;18.920;2022-11-25T19:46:45;11.20;;;8.40;;
62535;SDS011;63050;47.514;18.920;2022-11-25T19:51:47;10.70;;;7.90;;
62535;SDS011;63050;47.514;18.920;2022-11-25T19:56:48;16.00;;;9.90;;
62535;SDS011;63050;47.514;18.920;2022-11-25T20:01:49;14.80;;;8.50;;
62535;SDS011;63050;47.514;18.920;2022-11-25T20:06:49;12.00;;;8.10;;
62535;SDS011;63050;47.514;18.920;2022-11-25T20:11:50;11.60;;;7.60;;
62535;SDS011;63050;47.514;18.920;2022-11-25T20:16:55;15.00;;;8.40;;
62535;SDS011;63050;47.514;18.920;2022-11-25T20:21:57;10.70;;;7.80;;
62535;SDS011;63050;47.514;18.920;2022-11-25T20:26:58;12.50;;;8.00;;
62535;SDS011;63050;47.514;18.920;2022-11-25T20:31:59;13.10;;;8.40;;
62535;SDS011;63050;47.514;18.920;2022-11-25T20:37:01;13.60;;;8.40;;
62535;SDS011;63050;47.514;18.920;2022-11-25T20:42:01;12.20;;;7.70;;
62535;SDS011;63050;47.514;18.920;2022-11-25T20:47:04;12.60;;;7.70;;
62535;SDS011;63050;47.514;18.920;2022-11-25T20:52:17;13.70;;;8.50;;
62535;SDS011;63050;47.514;18.920;2022-11-25T20:57:20;15.80;;;9.80;;
62535;SDS011;63050;47.514;18.920;2022-11-25T21:02:21;16.10;;;8.60;;
62535;SDS011;63050;47.514;18.920;2022-11-25T21:07:22;18.30;;;9.30;;
62535;SDS011;63050;47.514;18.920;2022-11-25T21:12:22;20.70;;;11.10;;
62535;SDS011;63050;47.514;18.920;2022-11-25T21:17:23;19.30;;;11.30;;
62535;SDS011;63050;47.514;18.920;2022-11-25T21:22:24;17.40;;;10.60;;
62535;SDS011;63050;47.514;18.920;2022-11-25T21:27:25;19.60;;;10.20;;
62535;SDS011;63050;47.514;18.920;2022-11-25T21:32:27;18.50;;;11.60;;
62535;SDS011;63050;47.514;18.920;2022-11-25T21:37:31;21.90;;;12.80;;
62535;SDS011;63050;47.514;18.920;2022-11-25T21:42:35;21.00;;;11.50;;
62535;SDS011;63050;47.514;18.920;2022-11-25T21:47:36;20.10;;;11.70;;
62535;SDS011;63050;47.514;18.920;2022-11-25T21:52:37;15.70;;;10.40;;
62535;SDS011;63050;47.514;18.920;2022-11-25T21:57:38;21.00;;;12.60;;
62535;SDS011;63050;47.514;18.920;2022-11-25T22:02:39;21.80;;;11.50;;
62535;SDS011;63050;47.514;18.920;2022-11-25T22:07:40;18.20;;;11.40;;
62535;SDS011;63050;47.514;18.920;2022-11-25T22:12:41;17.40;;;10.80;;
62535;SDS011;63050;47.514;18.920;2022-11-25T22:17:44;22.50;;;12.70;;
62535;SDS011;63050;47.514;18.920;2022-11-25T22:22:45;22.90;;;12.00;;
62535;SDS011;63050;47.514;18.920;2022-11-25T22:27:46;25.80;;;14.70;;
62535;SDS011;63050;47.514;18.920;2022-11-25T22:32:54;25.70;;;12.00;;
62535;SDS011;63050;47.514;18.920;2022-11-25T22:38:01;23.80;;;13.40;;
62535;SDS011;63050;47.514;18.920;2022-11-25T22:43:02;22.10;;;13.20;;
62535;SDS011;63050;47.514;18.920;2022-11-25T22:48:03;24.30;;;12.40;;
62535;SDS011;63050;47.514;18.920;2022-11-25T22:53:07;23.90;;;13.10;;
62535;SDS011;63050;47.514;18.920;2022-11-25T22:58:12;23.50;;;13.90;;
62535;SDS011;63050;47.514;18.920;2022-11-25T23:03:24;24.80;;;12.70;;
62535;SDS011;63050;47.514;18.920;2022-11-25T23:08:27;28.30;;;13.70;;
62535;SDS011;63050;47.514;18.920;2022-11-25T23:13:28;26.40;;;13.50;;
62535;SDS011;63050;47.514;18.920;2022-11-25T23:18:34;24.90;;;13.40;;
62535;SDS011;63050;47.514;18.920;2022-11-25T23:23:37;24.20;;;14.30;;
62535;SDS011;63050;47.514;18.920;2022-11-25T23:28:38;23.00;;;13.50;;
62535;SDS011;63050;47.514;18.920;2022-11-25T23:33:43;36.80;;;15.10;;
62535;SDS011;63050;47.514;18.920;2022-11-25T23:38:45;25.40;;;14.40;;
62535;SDS011;63050;47.514;18.920;2022-11-25T23:43:49;25.60;;;14.40;;
62535;SDS011;63050;47.514;18.920;2022-11-25T23:48:57;27.20;;;15.70;;
62535;SDS011;63050;47.514;18.920;2022-11-25T23:53:59;25.50;;;14.30;;
62535;SDS011;63050;47.514;18.920;2022-11-25T23:59:00;24.00;;;15.50;;
